createdAt,value
2017-02-18T00:00:18.601Z,1025.13
2017-02-18T00:01:27.681Z,1025.16
2017-02-18T00:02:37.136Z,1025.2
2017-02-18T00:03:45.814Z,1025.19
2017-02-18T00:04:54.896Z,1025.18
2017-02-18T00:06:04.339Z,1025.18
2017-02-18T00:07:13.777Z,1025.15
2017-02-18T00:08:23.242Z,1025.12
2017-02-18T00:09:32.693Z,1025.13
2017-02-18T00:10:41.377Z,1025.13
2017-02-18T00:11:50.823Z,1025.07
2017-02-18T00:13:00.269Z,1025.05
2017-02-18T00:14:09.717Z,1025.04
2017-02-18T00:15:19.177Z,1025.03
2017-02-18T00:16:27.852Z,1025.08
2017-02-18T00:17:37.711Z,1025.07
2017-02-18T00:18:46.387Z,1025.08
2017-02-18T00:19:55.467Z,1025.09
2017-02-18T00:21:04.618Z,1025.07
2017-02-18T00:22:13.686Z,1025.05
2017-02-18T00:23:23.523Z,1025.05
2017-02-18T00:24:32.587Z,1025.01
2017-02-18T00:25:42.036Z,1025.03
2017-02-18T00:26:51.111Z,1025.03
2017-02-18T00:28:00.576Z,1025.06
2017-02-18T00:29:09.632Z,1025.03
2017-02-18T00:30:18.708Z,1025.02
2017-02-18T00:31:27.772Z,1025.05
2017-02-18T00:32:37.218Z,1025.07
2017-02-18T00:33:46.292Z,1025.12
2017-02-18T00:34:55.739Z,1025.07
2017-02-18T00:36:05.205Z,1025.1
2017-02-18T00:37:14.680Z,1025.06
2017-02-18T00:38:23.741Z,1025.04
2017-02-18T00:39:32.806Z,1025.05
2017-02-18T00:40:42.248Z,1025.03
2017-02-18T00:41:52.099Z,1025.02
2017-02-18T00:43:01.178Z,1025.04
2017-02-18T00:44:10.631Z,1025.08
2017-02-18T00:45:20.076Z,1025
2017-02-18T00:46:28.784Z,1025.02
2017-02-18T00:47:37.859Z,1025.01
2017-02-18T00:48:47.713Z,1025.03
2017-02-18T00:49:56.778Z,1025
2017-02-18T00:51:06.231Z,1025.05
2017-02-18T00:52:15.294Z,1025.06
2017-02-18T00:53:23.974Z,1025.04
2017-02-18T00:54:33.414Z,1025.05
2017-02-18T00:55:42.857Z,1025.03
2017-02-18T00:56:52.307Z,1025.03
2017-02-18T00:58:00.988Z,1025.06
2017-02-18T00:59:10.056Z,1025.05
2017-02-18T01:00:19.537Z,1025.07
2017-02-18T01:01:28.239Z,1025.08
2017-02-18T01:02:37.308Z,1025.1
2017-02-18T01:03:46.760Z,1025.08
2017-02-18T01:04:56.199Z,1025.12
2017-02-18T01:06:04.892Z,1025.06
2017-02-18T01:07:14.338Z,1025.07
2017-02-18T01:08:23.408Z,1025.11
2017-02-18T01:09:32.110Z,1025.09
2017-02-18T01:10:41.560Z,1025.12
2017-02-18T01:11:50.646Z,1025.05
2017-02-18T01:13:00.479Z,1025.1
2017-02-18T01:14:09.954Z,1025.09
2017-02-18T01:15:19.777Z,1025.11
2017-02-18T01:16:28.845Z,1025.13
2017-02-18T01:17:38.303Z,1025.08
2017-02-18T01:18:47.368Z,1025.09
2017-02-18T01:19:56.428Z,1025.07
2017-02-18T01:21:05.529Z,1025.11
2017-02-18T01:22:14.585Z,1025.08
2017-02-18T01:23:23.660Z,1025.13
2017-02-18T01:24:33.547Z,1025.11
2017-02-18T01:25:42.613Z,1025.14
2017-02-18T01:26:52.837Z,1025.16
2017-02-18T01:28:02.683Z,1025.12
2017-02-18T01:29:11.388Z,1025.18
2017-02-18T01:30:20.822Z,1025.17
2017-02-18T01:31:29.512Z,1025.16
2017-02-18T01:32:38.973Z,1025.16
2017-02-18T01:33:48.439Z,1025.13
2017-02-18T01:34:57.530Z,1025.21
2017-02-18T01:36:07.367Z,1025.16
2017-02-18T01:37:16.428Z,1025.15
2017-02-18T01:38:25.862Z,1025.17
2017-02-18T01:39:35.299Z,1025.17
2017-02-18T01:40:44.736Z,1025.17
2017-02-18T01:41:53.415Z,1025.16
2017-02-18T01:43:03.259Z,1025.16
2017-02-18T01:44:12.716Z,1025.17
2017-02-18T01:45:21.397Z,1025.12
2017-02-18T01:46:30.849Z,1025.05
2017-02-18T01:47:40.285Z,1025.1
2017-02-18T01:48:48.986Z,1025.08
2017-02-18T01:49:57.680Z,1025.06
2017-02-18T01:51:07.509Z,1025.04
2017-02-18T01:52:16.197Z,1025.01
2017-02-18T01:53:25.639Z,1025.01
2017-02-18T01:54:35.082Z,1025.02
2017-02-18T01:55:44.927Z,1025
2017-02-18T01:56:54.363Z,1025.02
2017-02-18T01:58:03.050Z,1025.03
2017-02-18T01:59:12.505Z,1024.99
2017-02-18T02:00:21.597Z,1024.94
2017-02-18T02:01:30.681Z,1024.94
2017-02-18T02:02:40.503Z,1024.94
2017-02-18T02:03:50.325Z,1024.94
2017-02-18T02:05:00.168Z,1024.92
2017-02-18T02:06:09.637Z,1024.95
2017-02-18T02:07:19.078Z,1024.97
2017-02-18T02:08:28.921Z,1024.96
2017-02-18T02:09:37.613Z,1024.96
2017-02-18T02:10:46.694Z,1024.93
2017-02-18T02:11:56.152Z,1024.98
2017-02-18T02:13:05.611Z,1024.92
2017-02-18T02:14:14.304Z,1024.88
2017-02-18T02:15:23.762Z,1024.88
2017-02-18T02:16:33.595Z,1024.89
2017-02-18T02:17:43.798Z,1024.89
2017-02-18T02:18:53.622Z,1024.86
2017-02-18T02:20:03.111Z,1024.84
2017-02-18T02:21:12.940Z,1024.81
2017-02-18T02:22:22.016Z,1024.79
2017-02-18T02:23:31.118Z,1024.8
2017-02-18T02:24:40.577Z,1024.79
2017-02-18T02:25:50.039Z,1024.78
2017-02-18T02:26:58.728Z,1024.78
2017-02-18T02:28:07.803Z,1024.75
2017-02-18T02:29:16.494Z,1024.71
2017-02-18T02:30:25.948Z,1024.69
2017-02-18T02:31:35.390Z,1024.72
2017-02-18T02:32:44.449Z,1024.69
2017-02-18T02:33:53.896Z,1024.7
2017-02-18T02:35:03.338Z,1024.64
2017-02-18T02:36:12.415Z,1024.66
2017-02-18T02:37:21.866Z,1024.63
2017-02-18T02:38:30.945Z,1024.62
2017-02-18T02:39:40.021Z,1024.65
2017-02-18T02:40:49.465Z,1024.67
2017-02-18T02:41:59.299Z,1024.66
2017-02-18T02:43:08.373Z,1024.7
2017-02-18T02:44:17.437Z,1024.65
2017-02-18T02:45:26.502Z,1024.66
2017-02-18T02:46:35.585Z,1024.64
2017-02-18T02:47:44.674Z,1024.67
2017-02-18T02:48:53.762Z,1024.61
2017-02-18T02:50:03.217Z,1024.55
2017-02-18T02:51:12.292Z,1024.57
2017-02-18T02:52:21.349Z,1024.59
2017-02-18T02:53:30.411Z,1024.58
2017-02-18T02:54:39.479Z,1024.57
2017-02-18T02:55:48.936Z,1024.55
2017-02-18T02:56:58.374Z,1024.52
2017-02-18T02:58:07.076Z,1024.51
2017-02-18T02:59:15.767Z,1024.46
2017-02-18T03:00:25.634Z,1024.45
2017-02-18T03:01:34.689Z,1024.48
2017-02-18T03:02:44.136Z,1024.5
2017-02-18T03:03:53.579Z,1024.47
2017-02-18T03:05:03.420Z,1024.45
2017-02-18T03:06:12.519Z,1024.46
2017-02-18T03:07:22.347Z,1024.44
2017-02-18T03:08:31.813Z,1024.46
2017-02-18T03:09:42.022Z,1024.5
2017-02-18T03:10:51.090Z,1024.49
2017-02-18T03:12:00.551Z,1024.47
2017-02-18T03:13:10.774Z,1024.46
2017-02-18T03:14:19.841Z,1024.41
2017-02-18T03:15:28.511Z,1024.4
2017-02-18T03:16:37.990Z,1024.48
2017-02-18T03:17:46.667Z,1024.49
2017-02-18T03:18:55.350Z,1024.48
2017-02-18T03:20:04.410Z,1024.48
2017-02-18T03:21:13.911Z,1024.44
2017-02-18T03:22:24.138Z,1024.42
2017-02-18T03:23:32.847Z,1024.48
2017-02-18T03:24:41.556Z,1024.43
2017-02-18T03:25:50.617Z,1024.52
2017-02-18T03:27:00.063Z,1024.52
2017-02-18T03:28:09.134Z,1024.58
2017-02-18T03:29:18.959Z,1024.58
2017-02-18T03:30:28.057Z,1024.59
2017-02-18T03:31:37.142Z,1024.57
2017-02-18T03:32:46.206Z,1024.57
2017-02-18T03:33:54.894Z,1024.61
2017-02-18T03:35:04.348Z,1024.59
2017-02-18T03:36:13.035Z,1024.61
2017-02-18T03:37:22.491Z,1024.69
2017-02-18T03:38:31.194Z,1024.63
2017-02-18T03:39:40.648Z,1024.67
2017-02-18T03:40:49.725Z,1024.66
2017-02-18T03:41:59.591Z,1024.65
2017-02-18T03:43:08.653Z,1024.64
2017-02-18T03:44:17.731Z,1024.65
2017-02-18T03:45:27.466Z,1024.64
2017-02-18T03:46:36.933Z,1024.63
2017-02-18T03:47:45.999Z,1024.61
2017-02-18T03:48:56.608Z,1024.61
2017-02-18T03:50:05.680Z,1024.62
2017-02-18T03:51:14.745Z,1024.62
2017-02-18T03:52:23.451Z,1024.63
2017-02-18T03:53:32.921Z,1024.6
2017-02-18T03:54:42.404Z,1024.59
2017-02-18T03:55:52.142Z,1024.59
2017-02-18T03:57:01.583Z,1024.58
2017-02-18T03:58:10.661Z,1024.6
2017-02-18T03:59:20.496Z,1024.58
2017-02-18T04:00:29.589Z,1024.66
2017-02-18T04:01:38.293Z,1024.71
2017-02-18T04:02:47.384Z,1024.69
2017-02-18T04:03:56.879Z,1024.67
2017-02-18T04:05:06.345Z,1024.63
2017-02-18T04:06:15.399Z,1024.66
2017-02-18T04:07:25.226Z,1024.6
2017-02-18T04:08:35.065Z,1024.62
2017-02-18T04:09:44.140Z,1024.6
2017-02-18T04:10:53.597Z,1024.62
2017-02-18T04:12:03.053Z,1024.63
2017-02-18T04:13:12.892Z,1024.62
2017-02-18T04:14:22.337Z,1024.66
2017-02-18T04:15:31.802Z,1024.63
2017-02-18T04:16:40.509Z,1024.69
2017-02-18T04:17:49.965Z,1024.63
2017-02-18T04:18:59.038Z,1024.68
2017-02-18T04:20:08.089Z,1024.71
2017-02-18T04:21:17.143Z,1024.73
2017-02-18T04:22:25.845Z,1024.73
2017-02-18T04:23:35.684Z,1024.69
2017-02-18T04:24:45.512Z,1024.71
2017-02-18T04:25:54.583Z,1024.69
2017-02-18T04:27:04.044Z,1024.63
2017-02-18T04:28:13.495Z,1024.68
2017-02-18T04:29:22.960Z,1024.66
2017-02-18T04:30:32.038Z,1024.67
2017-02-18T04:31:41.483Z,1024.67
2017-02-18T04:32:50.939Z,1024.7
2017-02-18T04:34:00.390Z,1024.72
2017-02-18T04:35:09.850Z,1024.68
2017-02-18T04:36:19.295Z,1024.66
2017-02-18T04:37:28.759Z,1024.67
2017-02-18T04:38:37.821Z,1024.66
2017-02-18T04:39:47.270Z,1024.69
2017-02-18T04:40:56.339Z,1024.67
2017-02-18T04:42:05.396Z,1024.68
2017-02-18T04:43:15.221Z,1024.69
2017-02-18T04:44:24.691Z,1024.73
2017-02-18T04:45:33.372Z,1024.71
2017-02-18T04:46:42.063Z,1024.71
2017-02-18T04:47:51.898Z,1024.72
2017-02-18T04:49:00.596Z,1024.71
2017-02-18T04:50:09.696Z,1024.8
2017-02-18T04:51:18.381Z,1024.79
2017-02-18T04:52:27.441Z,1024.75
2017-02-18T04:53:36.500Z,1024.74
2017-02-18T04:54:45.582Z,1024.76
2017-02-18T04:55:54.653Z,1024.74
2017-02-18T04:57:05.233Z,1024.79
2017-02-18T04:58:14.308Z,1024.77
2017-02-18T04:59:23.380Z,1024.79
2017-02-18T05:00:32.828Z,1024.81
2017-02-18T05:01:42.289Z,1024.78
2017-02-18T05:02:52.109Z,1024.78
2017-02-18T05:04:01.181Z,1024.8
2017-02-18T05:05:10.247Z,1024.79
2017-02-18T05:06:20.107Z,1024.73
2017-02-18T05:07:29.184Z,1024.77
2017-02-18T05:08:38.668Z,1024.77
2017-02-18T05:09:47.748Z,1024.79
2017-02-18T05:10:56.824Z,1024.8
2017-02-18T05:12:06.285Z,1024.78
2017-02-18T05:13:14.963Z,1024.79
2017-02-18T05:14:24.032Z,1024.82
2017-02-18T05:15:33.102Z,1024.83
2017-02-18T05:16:42.556Z,1024.81
2017-02-18T05:17:51.650Z,1024.85
2017-02-18T05:19:01.091Z,1024.84
2017-02-18T05:20:11.302Z,1024.84
2017-02-18T05:21:19.987Z,1024.87
2017-02-18T05:22:29.065Z,1024.84
2017-02-18T05:23:38.912Z,1024.83
2017-02-18T05:24:48.034Z,1024.84
2017-02-18T05:25:57.870Z,1024.77
2017-02-18T05:27:07.704Z,1024.84
2017-02-18T05:28:16.393Z,1024.84
2017-02-18T05:29:26.622Z,1024.81
2017-02-18T05:30:35.690Z,1024.8
2017-02-18T05:31:45.890Z,1024.8
2017-02-18T05:32:54.983Z,1024.82
2017-02-18T05:34:04.813Z,1024.84
2017-02-18T05:35:14.273Z,1024.78
2017-02-18T05:36:23.716Z,1024.78
2017-02-18T05:37:32.779Z,1024.81
2017-02-18T05:38:42.221Z,1024.79
2017-02-18T05:39:51.680Z,1024.8
2017-02-18T05:41:01.507Z,1024.81
2017-02-18T05:42:11.726Z,1024.76
2017-02-18T05:43:21.593Z,1024.86
2017-02-18T05:44:31.042Z,1024.79
2017-02-18T05:45:39.742Z,1024.81
2017-02-18T05:46:48.842Z,1024.84
2017-02-18T05:47:57.936Z,1024.84
2017-02-18T05:49:06.686Z,1024.81
2017-02-18T05:50:16.142Z,1024.76
2017-02-18T05:51:25.967Z,1024.8
2017-02-18T05:52:34.644Z,1024.7
2017-02-18T05:53:44.875Z,1024.78
2017-02-18T05:54:54.328Z,1024.82
2017-02-18T05:56:03.764Z,1024.81
2017-02-18T05:57:12.449Z,1024.83
2017-02-18T05:58:22.297Z,1024.81
2017-02-18T05:59:31.773Z,1024.83
2017-02-18T06:00:40.831Z,1024.84
2017-02-18T06:01:50.301Z,1024.82
2017-02-18T06:02:58.994Z,1024.83
2017-02-18T06:04:08.055Z,1024.81
2017-02-18T06:05:17.530Z,1024.84
2017-02-18T06:06:26.988Z,1024.89
2017-02-18T06:07:36.446Z,1024.82
2017-02-18T06:08:46.650Z,1024.84
2017-02-18T06:09:56.084Z,1024.81
2017-02-18T06:11:05.935Z,1024.85
2017-02-18T06:12:15.000Z,1024.81
2017-02-18T06:13:24.062Z,1024.87
2017-02-18T06:14:33.144Z,1024.84
2017-02-18T06:15:42.590Z,1024.85
2017-02-18T06:16:52.032Z,1024.89
2017-02-18T06:18:01.505Z,1024.89
2017-02-18T06:19:11.345Z,1024.89
2017-02-18T06:20:21.175Z,1024.89
2017-02-18T06:21:30.260Z,1024.87
2017-02-18T06:22:39.347Z,1024.88
2017-02-18T06:23:49.171Z,1024.92
2017-02-18T06:24:58.637Z,1024.97
2017-02-18T06:26:08.082Z,1024.91
2017-02-18T06:27:17.173Z,1024.98
2017-02-18T06:28:26.242Z,1024.96
2017-02-18T06:29:35.318Z,1024.93
2017-02-18T06:30:44.788Z,1024.94
2017-02-18T06:31:53.869Z,1024.94
2017-02-18T06:33:02.945Z,1024.97
2017-02-18T06:34:12.003Z,1024.92
2017-02-18T06:35:21.457Z,1024.93
2017-02-18T06:36:30.905Z,1024.88
2017-02-18T06:37:39.987Z,1024.95
2017-02-18T06:38:49.852Z,1024.97
2017-02-18T06:39:59.301Z,1024.99
2017-02-18T06:41:08.390Z,1024.98
2017-02-18T06:42:17.830Z,1024.98
2017-02-18T06:43:27.293Z,1024.98
2017-02-18T06:44:36.369Z,1024.98
2017-02-18T06:45:45.823Z,1024.98
2017-02-18T06:46:55.300Z,1025.01
2017-02-18T06:48:04.742Z,1024.99
2017-02-18T06:49:14.201Z,1025.01
2017-02-18T06:50:23.661Z,1024.97
2017-02-18T06:51:32.360Z,1024.97
2017-02-18T06:52:42.216Z,1024.95
2017-02-18T06:53:51.303Z,1024.95
2017-02-18T06:55:00.364Z,1024.97
2017-02-18T06:56:09.443Z,1024.97
2017-02-18T06:57:18.899Z,1024.95
2017-02-18T06:58:27.584Z,1024.97
2017-02-18T06:59:36.270Z,1024.95
2017-02-18T07:00:45.354Z,1024.97
2017-02-18T07:01:54.067Z,1024.92
2017-02-18T07:03:03.154Z,1024.93
2017-02-18T07:04:13.359Z,1024.9
2017-02-18T07:05:22.827Z,1024.9
2017-02-18T07:06:32.289Z,1024.91
2017-02-18T07:07:42.131Z,1024.87
2017-02-18T07:08:51.959Z,1024.94
2017-02-18T07:10:02.203Z,1024.96
2017-02-18T07:11:10.886Z,1024.98
2017-02-18T07:12:19.952Z,1024.94
2017-02-18T07:13:29.048Z,1024.93
2017-02-18T07:14:38.140Z,1024.94
2017-02-18T07:15:46.848Z,1024.98
2017-02-18T07:16:55.529Z,1024.98
2017-02-18T07:18:04.602Z,1024.98
2017-02-18T07:19:14.063Z,1025
2017-02-18T07:20:23.122Z,1025.03
2017-02-18T07:21:32.198Z,1025.04
2017-02-18T07:22:41.648Z,1025.02
2017-02-18T07:23:50.716Z,1025.05
2017-02-18T07:24:59.781Z,1025.08
2017-02-18T07:26:09.258Z,1025.1
2017-02-18T07:27:18.352Z,1025.12
2017-02-18T07:28:27.415Z,1025.16
2017-02-18T07:29:36.906Z,1025.19
2017-02-18T07:30:46.744Z,1025.16
2017-02-18T07:31:55.433Z,1025.17
2017-02-18T07:33:04.501Z,1025.21
2017-02-18T07:34:13.966Z,1025.18
2017-02-18T07:35:23.404Z,1025.18
2017-02-18T07:36:32.860Z,1025.15
2017-02-18T07:37:42.318Z,1025.17
2017-02-18T07:38:51.782Z,1025.21
2017-02-18T07:40:01.227Z,1025.26
2017-02-18T07:41:10.731Z,1025.24
2017-02-18T07:42:20.182Z,1025.2
2017-02-18T07:43:29.256Z,1025.18
2017-02-18T07:44:38.327Z,1025.25
2017-02-18T07:45:47.386Z,1025.25
2017-02-18T07:46:57.219Z,1025.25
2017-02-18T07:48:05.914Z,1025.26
2017-02-18T07:49:14.976Z,1025.26
2017-02-18T07:50:23.678Z,1025.24
2017-02-18T07:51:33.139Z,1025.23
2017-02-18T07:52:42.203Z,1025.24
2017-02-18T07:53:51.289Z,1025.25
2017-02-18T07:55:01.121Z,1025.24
2017-02-18T07:56:11.413Z,1025.24
2017-02-18T07:57:21.262Z,1025.25
2017-02-18T07:58:31.086Z,1025.22
2017-02-18T07:59:40.537Z,1025.28
2017-02-18T08:00:49.596Z,1025.25
2017-02-18T08:01:58.284Z,1025.2
2017-02-18T08:03:06.973Z,1025.24
2017-02-18T08:04:16.426Z,1025.22
2017-02-18T08:05:25.491Z,1025.24
2017-02-18T08:06:34.182Z,1025.25
2017-02-18T08:07:42.901Z,1025.25
2017-02-18T08:08:51.975Z,1025.27
2017-02-18T08:10:01.812Z,1025.29
2017-02-18T08:11:10.874Z,1025.26
2017-02-18T08:12:19.956Z,1025.3
2017-02-18T08:13:28.659Z,1025.33
2017-02-18T08:14:39.291Z,1025.29
2017-02-18T08:15:48.381Z,1025.28
2017-02-18T08:16:57.449Z,1025.26
2017-02-18T08:18:06.902Z,1025.24
2017-02-18T08:19:16.762Z,1025.24
2017-02-18T08:20:25.834Z,1025.2
2017-02-18T08:21:34.956Z,1025.22
2017-02-18T08:22:44.415Z,1025.25
2017-02-18T08:23:53.873Z,1025.27
2017-02-18T08:25:03.336Z,1025.25
2017-02-18T08:26:12.803Z,1025.24
2017-02-18T08:27:21.888Z,1025.26
2017-02-18T08:28:30.564Z,1025.28
2017-02-18T08:29:40.045Z,1025.25
2017-02-18T08:30:49.489Z,1025.31
2017-02-18T08:31:59.325Z,1025.33
2017-02-18T08:33:08.404Z,1025.31
2017-02-18T08:34:18.232Z,1025.32
2017-02-18T08:35:26.928Z,1025.32
2017-02-18T08:36:35.995Z,1025.29
2017-02-18T08:37:45.061Z,1025.3
2017-02-18T08:38:54.122Z,1025.27
2017-02-18T08:40:03.608Z,1025.34
2017-02-18T08:41:12.673Z,1025.36
2017-02-18T08:42:22.521Z,1025.34
2017-02-18T08:43:31.216Z,1025.32
2017-02-18T08:44:40.300Z,1025.28
2017-02-18T08:45:49.756Z,1025.32
2017-02-18T08:46:58.461Z,1025.35
2017-02-18T08:48:07.915Z,1025.32
2017-02-18T08:49:16.988Z,1025.35
2017-02-18T08:50:26.116Z,1025.38
2017-02-18T08:51:35.597Z,1025.36
2017-02-18T08:52:45.064Z,1025.33
2017-02-18T08:53:54.523Z,1025.36
2017-02-18T08:55:03.593Z,1025.38
2017-02-18T08:56:12.665Z,1025.37
2017-02-18T08:57:22.502Z,1025.4
2017-02-18T08:58:31.961Z,1025.42
2017-02-18T08:59:40.658Z,1025.37
2017-02-18T09:00:50.112Z,1025.38
2017-02-18T09:01:59.206Z,1025.37
2017-02-18T09:03:08.283Z,1025.39
2017-02-18T09:04:17.761Z,1025.45
2017-02-18T09:05:27.608Z,1025.44
2017-02-18T09:06:37.069Z,1025.4
2017-02-18T09:07:46.550Z,1025.4
2017-02-18T09:08:55.237Z,1025.42
2017-02-18T09:10:05.094Z,1025.42
2017-02-18T09:11:13.794Z,1025.46
2017-02-18T09:12:22.870Z,1025.44
2017-02-18T09:13:32.329Z,1025.47
2017-02-18T09:14:41.390Z,1025.52
2017-02-18T09:15:51.611Z,1025.5
2017-02-18T09:17:00.694Z,1025.49
2017-02-18T09:18:09.764Z,1025.47
2017-02-18T09:19:18.462Z,1025.5
2017-02-18T09:20:27.151Z,1025.46
2017-02-18T09:21:36.600Z,1025.5
2017-02-18T09:22:46.049Z,1025.62
2017-02-18T09:23:55.495Z,1025.6
2017-02-18T09:25:04.182Z,1025.53
2017-02-18T09:26:13.255Z,1025.57
2017-02-18T09:27:22.350Z,1025.61
2017-02-18T09:28:31.435Z,1025.6
2017-02-18T09:29:40.129Z,1025.62
2017-02-18T09:30:49.595Z,1025.57
2017-02-18T09:31:59.443Z,1025.56
2017-02-18T09:33:08.513Z,1025.59
2017-02-18T09:34:17.591Z,1025.57
2017-02-18T09:35:26.672Z,1025.59
2017-02-18T09:36:36.501Z,1025.62
2017-02-18T09:37:46.337Z,1025.63
2017-02-18T09:38:55.024Z,1025.59
2017-02-18T09:40:04.489Z,1025.61
2017-02-18T09:41:13.567Z,1025.57
2017-02-18T09:42:22.639Z,1025.61
2017-02-18T09:43:32.506Z,1025.64
2017-02-18T09:44:42.384Z,1025.62
2017-02-18T09:45:51.479Z,1025.57
2017-02-18T09:47:01.338Z,1025.54
2017-02-18T09:48:10.439Z,1025.53
2017-02-18T09:49:19.897Z,1025.61
2017-02-18T09:50:29.348Z,1025.57
2017-02-18T09:51:38.856Z,1025.66
2017-02-18T09:52:47.927Z,1025.59
2017-02-18T09:53:57.757Z,1025.52
2017-02-18T09:55:07.220Z,1025.61
2017-02-18T09:56:15.907Z,1025.67
2017-02-18T09:57:25.365Z,1025.54
2017-02-18T09:58:34.435Z,1025.51
2017-02-18T09:59:43.516Z,1025.58
2017-02-18T10:00:52.974Z,1025.52
2017-02-18T10:02:02.038Z,1025.56
2017-02-18T10:03:11.487Z,1025.55
2017-02-18T10:04:20.569Z,1025.68
2017-02-18T10:05:30.024Z,1025.87
2017-02-18T10:06:39.483Z,1025.75
2017-02-18T10:07:49.312Z,1025.89
2017-02-18T10:08:58.015Z,1025.85
2017-02-18T10:10:07.862Z,1025.73
2017-02-18T10:11:17.709Z,1025.72
2017-02-18T10:12:27.176Z,1025.81
2017-02-18T10:13:36.636Z,1025.81
2017-02-18T10:14:46.085Z,1025.66
2017-02-18T10:15:55.181Z,1025.55
2017-02-18T10:17:05.028Z,1025.58
2017-02-18T10:18:13.716Z,1025.53
2017-02-18T10:19:22.406Z,1025.54
2017-02-18T10:20:32.257Z,1025.73
2017-02-18T10:21:40.947Z,1025.78
2017-02-18T10:22:50.435Z,1025.82
2017-02-18T10:23:59.910Z,1025.84
2017-02-18T10:25:09.744Z,1025.81
2017-02-18T10:26:18.831Z,1025.87
2017-02-18T10:27:27.528Z,1025.85
2017-02-18T10:28:36.604Z,1025.89
2017-02-18T10:29:45.685Z,1025.9
2017-02-18T10:30:55.211Z,1025.88
2017-02-18T10:32:03.900Z,1025.87
2017-02-18T10:33:13.045Z,1025.82
2017-02-18T10:34:22.561Z,1025.82
2017-02-18T10:35:32.040Z,1025.85
2017-02-18T10:36:41.515Z,1025.84
2017-02-18T10:37:50.584Z,1025.83
2017-02-18T10:39:00.427Z,1025.87
2017-02-18T10:40:09.527Z,1025.87
2017-02-18T10:41:19.054Z,1025.9
2017-02-18T10:42:28.137Z,1025.85
2017-02-18T10:43:37.621Z,1025.87
2017-02-18T10:44:46.322Z,1025.89
2017-02-18T10:45:55.423Z,1025.92
2017-02-18T10:47:04.887Z,1025.94
2017-02-18T10:48:13.988Z,1025.9
2017-02-18T10:49:22.693Z,1025.9
2017-02-18T10:50:32.541Z,1025.88
2017-02-18T10:51:42.001Z,1025.91
2017-02-18T10:52:51.099Z,1025.9
2017-02-18T10:54:00.175Z,1025.87
2017-02-18T10:55:09.655Z,1025.86
2017-02-18T10:56:18.742Z,1025.85
2017-02-18T10:57:27.451Z,1025.82
2017-02-18T10:58:36.529Z,1025.81
2017-02-18T10:59:45.230Z,1025.84
2017-02-18T11:00:54.322Z,1025.82
2017-02-18T11:02:04.938Z,1025.82
2017-02-18T11:03:14.072Z,1025.82
2017-02-18T11:04:23.535Z,1025.81
2017-02-18T11:05:32.241Z,1025.73
2017-02-18T11:06:41.702Z,1025.75
2017-02-18T11:07:51.155Z,1025.74
2017-02-18T11:09:00.222Z,1025.69
2017-02-18T11:10:09.297Z,1025.71
2017-02-18T11:11:18.393Z,1025.62
2017-02-18T11:12:27.470Z,1025.53
2017-02-18T11:13:36.573Z,1025.55
2017-02-18T11:14:45.640Z,1025.51
2017-02-18T11:15:54.730Z,1025.47
2017-02-18T11:17:04.223Z,1025.5
2017-02-18T11:18:12.913Z,1025.46
2017-02-18T11:19:22.786Z,1025.48
2017-02-18T11:20:32.252Z,1025.42
2017-02-18T11:21:41.709Z,1025.45
2017-02-18T11:22:50.801Z,1025.46
2017-02-18T11:24:00.683Z,1025.49
2017-02-18T11:25:10.190Z,1025.52
2017-02-18T11:26:18.897Z,1025.52
2017-02-18T11:27:28.371Z,1025.54
2017-02-18T11:28:37.833Z,1025.54
2017-02-18T11:29:46.909Z,1025.58
2017-02-18T11:30:56.000Z,1025.36
2017-02-18T11:32:05.450Z,1025.34
2017-02-18T11:33:14.919Z,1025.28
2017-02-18T11:34:23.999Z,1025.29
2017-02-18T11:35:33.093Z,1025.49
2017-02-18T11:36:42.553Z,1025.3
2017-02-18T11:37:51.637Z,1025.3
2017-02-18T11:39:01.099Z,1025.35
2017-02-18T11:40:10.576Z,1025.45
2017-02-18T11:41:19.649Z,1025.43
2017-02-18T11:42:28.738Z,1025.32
2017-02-18T11:43:38.205Z,1025.28
2017-02-18T11:44:47.653Z,1025.25
2017-02-18T11:45:57.490Z,1025.27
2017-02-18T11:47:06.941Z,1025.32
2017-02-18T11:48:16.775Z,1025.31
2017-02-18T11:49:25.845Z,1025.31
2017-02-18T11:50:34.929Z,1025.3
2017-02-18T11:51:44.761Z,1025.22
2017-02-18T11:52:53.840Z,1025.19
2017-02-18T11:54:03.301Z,1025.16
2017-02-18T11:55:12.756Z,1025.12
2017-02-18T11:56:21.455Z,1025.13
2017-02-18T11:57:30.918Z,1025.06
2017-02-18T11:58:46.668Z,1025.13
2017-02-18T11:59:56.124Z,1025.07
2017-02-18T12:01:05.227Z,1025.08
2017-02-18T12:02:14.722Z,1025.03
2017-02-18T12:03:23.829Z,1024.99
2017-02-18T12:04:33.294Z,1025.01
2017-02-18T12:05:42.369Z,1024.99
2017-02-18T12:06:52.213Z,1025.06
2017-02-18T12:08:01.285Z,1025.02
2017-02-18T12:09:10.385Z,1025.02
2017-02-18T12:10:20.212Z,1025.03
2017-02-18T12:11:30.039Z,1024.97
2017-02-18T12:12:39.501Z,1024.93
2017-02-18T12:13:48.197Z,1024.93
2017-02-18T12:14:57.296Z,1024.94
2017-02-18T12:16:06.745Z,1024.87
2017-02-18T12:17:15.464Z,1024.92
2017-02-18T12:18:25.231Z,1024.9
2017-02-18T12:19:34.696Z,1024.87
2017-02-18T12:20:44.148Z,1024.87
2017-02-18T12:21:53.610Z,1024.88
2017-02-18T12:23:03.082Z,1024.87
2017-02-18T12:24:12.936Z,1024.88
2017-02-18T12:25:22.414Z,1024.87
2017-02-18T12:26:31.114Z,1024.84
2017-02-18T12:27:40.185Z,1024.8
2017-02-18T12:28:49.635Z,1024.82
2017-02-18T12:29:59.500Z,1024.81
2017-02-18T12:31:08.956Z,1024.78
2017-02-18T12:32:18.021Z,1024.77
2017-02-18T12:33:27.495Z,1024.68
2017-02-18T12:34:36.175Z,1024.7
2017-02-18T12:35:45.272Z,1024.64
2017-02-18T12:36:54.493Z,1024.69
2017-02-18T12:38:03.999Z,1024.73
2017-02-18T12:39:13.476Z,1024.76
2017-02-18T12:40:22.935Z,1024.74
2017-02-18T12:41:32.475Z,1024.74
2017-02-18T12:42:41.598Z,1024.72
2017-02-18T12:43:50.693Z,1024.72
2017-02-18T12:44:59.790Z,1024.71
2017-02-18T12:46:09.641Z,1024.68
2017-02-18T12:47:18.704Z,1024.65
2017-02-18T12:48:28.550Z,1024.67
2017-02-18T12:49:38.019Z,1024.61
2017-02-18T12:50:47.138Z,1024.6
2017-02-18T12:51:56.986Z,1024.6
2017-02-18T12:53:06.846Z,1024.58
2017-02-18T12:54:16.284Z,1024.59
2017-02-18T12:55:25.360Z,1024.57
2017-02-18T12:56:34.423Z,1024.6
2017-02-18T12:57:43.495Z,1024.6
2017-02-18T12:58:52.204Z,1024.57
2017-02-18T13:00:01.303Z,1024.58
2017-02-18T13:01:10.010Z,1024.54
2017-02-18T13:02:19.476Z,1024.57
2017-02-18T13:03:28.606Z,1024.52
2017-02-18T13:04:37.682Z,1024.5
2017-02-18T13:05:46.753Z,1024.53
2017-02-18T13:06:55.471Z,1024.5
2017-02-18T13:08:04.553Z,1024.51
2017-02-18T13:09:14.012Z,1024.5
2017-02-18T13:10:23.560Z,1024.45
2017-02-18T13:11:33.017Z,1024.49
2017-02-18T13:12:42.933Z,1024.46
2017-02-18T13:13:52.829Z,1024.44
2017-02-18T13:15:02.657Z,1024.42
2017-02-18T13:16:12.887Z,1024.39
2017-02-18T13:17:22.428Z,1024.38
2017-02-18T13:18:31.893Z,1024.39
2017-02-18T13:19:41.785Z,1024.37
2017-02-18T13:20:50.915Z,1024.36
2017-02-18T13:21:59.604Z,1024.41
2017-02-18T13:23:08.308Z,1024.39
2017-02-18T13:24:17.000Z,1024.43
2017-02-18T13:25:27.220Z,1024.37
2017-02-18T13:26:36.789Z,1024.4
2017-02-18T13:27:46.639Z,1024.38
2017-02-18T13:28:56.097Z,1024.37
2017-02-18T13:30:05.556Z,1024.36
2017-02-18T13:31:14.761Z,1024.39
2017-02-18T13:32:23.464Z,1024.4
2017-02-18T13:33:32.545Z,1024.35
2017-02-18T13:34:42.009Z,1024.3
2017-02-18T13:35:51.864Z,1024.32
2017-02-18T13:37:01.330Z,1024.32
2017-02-18T13:38:10.802Z,1024.32
2017-02-18T13:39:19.867Z,1024.29
2017-02-18T13:40:28.938Z,1024.29
2017-02-18T13:41:38.131Z,1024.32
2017-02-18T13:42:47.500Z,1024.3
2017-02-18T13:43:56.670Z,1024.34
2017-02-18T13:45:06.562Z,1024.32
2017-02-18T13:46:15.265Z,1024.3
2017-02-18T13:47:24.715Z,1024.24
2017-02-18T13:48:33.785Z,1024.25
2017-02-18T13:49:43.628Z,1024.27
2017-02-18T13:50:53.092Z,1024.23
2017-02-18T13:52:02.536Z,1024.17
2017-02-18T13:53:11.232Z,1024.2
2017-02-18T13:54:20.700Z,1024.21
2017-02-18T13:55:30.175Z,1024.19
2017-02-18T13:56:40.379Z,1024.19
2017-02-18T13:57:49.442Z,1024.19
2017-02-18T13:58:58.919Z,1024.19
2017-02-18T14:00:09.128Z,1024.16
2017-02-18T14:01:18.193Z,1024.24